METAR Data
IDs: Format: Raw Decoded Include TAF

Data at: 0626 UTC 23 Feb 2019

KLBX 230553Z AUTO 17014KT 6SM BR OVC003 22/22 A2986 RMK AO2 SLP110 T02170217 10222 20211 402440117 58009
KLBX 230522Z AUTO 16010KT 3SM BR OVC002 22/22 A2987 RMK AO2 T02170217
KLBX 230504Z AUTO 16008KT 2SM BR OVC002 22/22 A2987 RMK AO2 T02170217
KLBX 230453Z AUTO 16010KT 4SM BR OVC002 22/22 A2987 RMK AO2 SLP115 T02170217
KLBX 230353Z AUTO 17011KT 4SM BR OVC002 22/22 A2988 RMK AO2 SLP119 T02170217
KLBX 230337Z AUTO 17009KT 2SM BR OVC002 21/21 A2988 RMK AO2 T02110211
KLBX 230301Z AUTO 17009KT 1 1/4SM BR OVC002 21/21 A2989 RMK AO2 T02110211
KLBX 230253Z AUTO 17008KT 2SM BR OVC002 21/21 A2989 RMK AO2 SLP121 T02110211 53006
KLBX 230153Z AUTO 17005KT 5SM BR OVC002 22/22 A2988 RMK AO2 SLP119 T02170217
KLBX 230053Z AUTO 17008KT 6SM BR OVC003 22/21 A2987 RMK AO2 SLP115 T02170211
KLBX 222353Z AUTO 18008KT 8SM OVC004 22/22 A2987 RMK AO2 SLP115 T02170217 10244 20211 53004
KLBX 222253Z AUTO 17010KT 9SM OVC007 23/22 A2985 RMK AO2 CIG 005V009 SLP109 T02280217
KLBX 222153Z AUTO 14006KT 10SM OVC007 23/22 A2986 RMK AO2 SLP110 T02330217
KLBX 222125Z AUTO 15008KT 10SM OVC008 23/22 A2986 RMK AO2 CIG 007V013 T02280217
KLBX 222053Z AUTO 15011KT 10SM BKN010 OVC014 24/22 A2986 RMK AO2 CIG 008V012 SLP111 T02390217 56023
KLBX 221953Z AUTO 17012KT 10SM BKN014 OVC018 24/22 A2987 RMK AO2 SLP115 T02440217
KLBX 221935Z AUTO 15012KT 10SM BKN014 BKN021 OVC065 24/22 A2988 RMK AO2 T02440217
KLBX 221928Z AUTO 15012KT 10SM SCT012 BKN017 OVC060 24/22 A2989 RMK AO2 T02390217
KLBX 221853Z AUTO 15013KT 10SM BKN010 OVC016 24/22 A2991 RMK AO2 CIG 007V013 SLP127 T02440217
KLBX 221823Z AUTO 15011KT 9SM OVC007 23/22 A2992 RMK AO2 T02330217
KLBX 221753Z AUTO 12009KT 7SM OVC003 22/21 A2993 RMK AO2 SLP134 T02170211 10217 20117 56007
KLBX 221727Z AUTO 13008KT 3SM BR OVC002 20/20 A2994 RMK AO2 T02000200
KLBX 221706Z AUTO 14009KT 1SM BR OVC002 19/19 A2994 RMK AO2 T01940194
KLBX 221653Z AUTO 12008KT 3/4SM BR OVC002 19/19 A2994 RMK AO2 SLP138 T01890189
KLBX 221648Z AUTO 13009KT 1SM BR OVC002 19/19 A2994 RMK AO2
KLBX 221606Z AUTO 11006KT 1/2SM FG VV002 17/17 A2995 RMK AO2 T01670167
KLBX 221553Z AUTO 10006KT 1/4SM FG VV002 16/16 A2995 RMK AO2 SLP142 T01610161
KLBX 221508Z AUTO 08004KT 1/4SM FG VV002 14/14 A2996 RMK AO2 T01390139
KLBX 221453Z AUTO VRB04KT 1/2SM FG VV002 13/13 A2996 RMK AO2 SLP143 T01330133 53004
KLBX 221353Z AUTO 05004KT 1/2SM FG VV003 12/12 A2995 RMK AO2 SLP141 T01220122
KLBX 221253Z AUTO 05008KT 3/4SM BR OVC002 12/12 A2995 RMK AO2 SLP140 T01170117
KLBX 221153Z AUTO 36008KT 3/4SM BR VV002 12/12 A2994 RMK AO2 SLP139 60000 70027 T01170117 10128 20117 53003
KLBX 221053Z AUTO 02008KT 3/4SM BR VV002 12/12 A2993 RMK AO2 SLP133 T01170117
KLBX 221033Z AUTO 02008KT 3/4SM BR VV002 12/12 A2993 RMK AO2 T01170117
KLBX 220953Z AUTO 02007KT 1 1/4SM BR OVC002 12/12 A2992 RMK AO2 RAE0858 SLP132 P0000 T01170117
KLBX 220853Z AUTO 02007KT 1 1/4SM -RA BR OVC002 12/12 A2993 RMK AO2 RAB11 SLP136 P0000 60000 T01170117 50010
KLBX 220824Z AUTO 02007KT 1SM -RA BR VV002 12/12 A2993 RMK AO2 RAB11 P0000 T01170117
KLBX 220753Z AUTO 01008KT 3/4SM BR VV002 12/12 A2994 RMK AO2 SLP139 T01220122
KLBX 220653Z AUTO 01007KT 1/2SM FG VV002 12/12 A2993 RMK AO2 SLP135 T01220122
KLBX 220553Z AUTO 05007KT 1/2SM FG VV002 12/12 A2990 RMK AO2 SLP125 T01220122 10122 20122 401440117 58003
KLBX 220501Z AUTO 03006KT 3/4SM BR VV002 12/12 A2992 RMK AO2 T01220122
KLBX 220453Z AUTO 02006KT 1SM BR OVC002 12/12 A2993 RMK AO2 SLP135 T01220122
KLBX 220353Z AUTO 03006KT 1 1/4SM BR OVC002 12/12 A2993 RMK AO2 SLP134 T01220122
KLBX 220253Z AUTO 03006KT 1 1/2SM BR OVC002 12/12 A2991 RMK AO2 SLP129 T01220122 53013
KLBX 220153Z AUTO 04008KT 1 1/2SM BR OVC002 12/12 A2988 RMK AO2 SLP119 T01220122
KLBX 220134Z AUTO 03008KT 1 3/4SM BR OVC003 12/12 A2988 RMK AO2 T01220122
KLBX 220112Z AUTO 03010KT 2 1/2SM BR OVC003 12/12 A2989 RMK AO2 T01220122
KLBX 220102Z AUTO 03008KT 3SM BR OVC003 12/12 A2989 RMK AO2 T01220122
KLBX 220053Z AUTO 03009KT 2 1/2SM BR OVC003 12/12 A2989 RMK AO2 SLP120 T01220122
KLBX 220045Z AUTO 02008KT 2 1/2SM BR OVC003 12/12 A2989 RMK AO2 T01220122
KLBX 220022Z AUTO 02009KT 3SM BR OVC003 12/12 A2988 RMK AO2 T01220122
KLBX 212353Z AUTO 03008KT 2SM BR OVC004 12/12 A2987 RMK AO2 SLP116 60001 T01220122 10128 20122 53003
KLBX 212341Z AUTO 03009KT 2 1/2SM BR OVC004 12/12 A2987 RMK AO2 T01220122
KLBX 212328Z AUTO 02009KT 3SM BR OVC004 12/12 A2987 RMK AO2 T01220122
KLBX 212310Z AUTO 02008KT 2 1/2SM BR OVC004 12/12 A2987 RMK AO2 T01220122
KLBX 212253Z AUTO 02011KT 1 1/2SM BR OVC003 13/12 A2987 RMK AO2 SLP114 T01280122
KLBX 212153Z AUTO 01010KT 1 3/4SM BR OVC003 13/12 A2987 RMK AO2 RAE02 SLP113 P0000 T01280122
KLBX 212141Z AUTO 01010KT 1 3/4SM BR OVC003 13/12 A2986 RMK AO2 RAE02 P0000 T01280122
KLBX 212120Z AUTO 02009KT 2SM BR OVC004 13/13 A2986 RMK AO2 RAE02 P0000 T01280128
KLBX 212053Z AUTO 02008KT 3SM -RA BR OVC004 13/12 A2986 RMK AO2 RAB53 SLP113 P0001 60001 T01280122 56009
KLBX 212019Z AUTO 36009KT 2 1/2SM BR OVC004 13/12 A2987 RMK AO2 P0001 T01280122
KLBX 211953Z AUTO 01010KT 4SM BR OVC004 13/12 A2988 RMK AO2 RAE26 SLP116 P0000 T01280122
KLBX 211950Z AUTO 01010KT 3SM BR OVC004 13/12 A2988 RMK AO2 RAE26 P0000
KLBX 211937Z AUTO 02009KT 2SM BR OVC004 13/12 A2988 RMK AO2 RAE26 P0000 T01280122
KLBX 211853Z AUTO 03008KT 1 1/2SM -RA BR OVC003 12/12 A2989 RMK AO2 RAB13 SLP122 P0000 T01220122